createdAt,value
2023-05-10T00:01:26.953Z,8.27
2023-05-10T00:03:53.579Z,8.43
2023-05-10T00:06:20.287Z,7.75
2023-05-10T00:08:46.821Z,9.82
2023-05-10T00:11:13.343Z,8.35
2023-05-10T00:13:39.912Z,7.68
2023-05-10T00:16:06.579Z,10.93
2023-05-10T00:18:33.120Z,8.85
2023-05-10T00:20:59.727Z,10.48
2023-05-10T00:23:26.253Z,12.32
2023-05-10T00:25:52.775Z,10.02
2023-05-10T00:28:19.363Z,11.93
2023-05-10T00:30:45.949Z,11.35
2023-05-10T00:33:12.585Z,7.50
2023-05-10T00:35:39.280Z,11.02
2023-05-10T00:38:05.812Z,11.25
2023-05-10T00:40:32.392Z,8.88
2023-05-10T00:43:00.492Z,8.77
2023-05-10T00:45:27.145Z,11.35
2023-05-10T00:47:56.186Z,9.32
2023-05-10T00:50:24.410Z,10.05
2023-05-10T00:52:51.372Z,8.10
2023-05-10T00:55:18.916Z,11.15
2023-05-10T00:57:45.559Z,10.93
2023-05-10T01:00:13.873Z,8.80
2023-05-10T01:02:41.624Z,9.38
2023-05-10T01:05:08.419Z,7.68
2023-05-10T01:07:34.999Z,11.60
2023-05-10T01:10:01.633Z,8.65
2023-05-10T01:12:28.345Z,10.02
2023-05-10T01:14:55.900Z,10.73
2023-05-10T01:17:23.531Z,10.20
2023-05-10T01:19:50.780Z,10.32
2023-05-10T01:22:58.606Z,7.72
2023-05-10T01:25:53.260Z,9.60
2023-05-10T01:28:44.652Z,15.27
2023-05-10T01:31:32.655Z,6.68
2023-05-10T01:34:13.121Z,6.55
2023-05-10T01:36:49.322Z,4.80
2023-05-10T01:39:22.182Z,5.22
2023-05-10T01:42:04.529Z,5.65
2023-05-10T01:44:38.716Z,4.63
2023-05-10T01:47:18.381Z,3.80
2023-05-10T01:49:51.635Z,7.07
2023-05-10T01:52:21.205Z,3.63
2023-05-10T01:54:56.689Z,3.00
2023-05-10T01:57:26.971Z,4.70
2023-05-10T01:59:54.628Z,3.83
2023-05-10T02:02:23.270Z,4.38
2023-05-10T02:04:51.705Z,6.85
2023-05-10T02:07:19.084Z,5.88
2023-05-10T02:09:49.702Z,3.38
2023-05-10T02:12:17.183Z,2.67
2023-05-10T02:14:45.137Z,3.33
2023-05-10T02:17:12.869Z,2.92
2023-05-10T02:19:41.924Z,3.22
2023-05-10T02:22:09.984Z,3.05
2023-05-10T02:24:38.126Z,1.52
2023-05-10T02:27:05.311Z,5.97
2023-05-10T02:29:33.404Z,1.70
2023-05-10T02:32:01.018Z,1.67
2023-05-10T02:34:28.739Z,3.90
2023-05-10T02:36:57.108Z,2.22
2023-05-10T02:39:24.838Z,2.15
2023-05-10T02:41:53.323Z,3.30
2023-05-10T02:44:21.092Z,4.13
2023-05-10T02:46:48.079Z,1.63
2023-05-10T02:49:15.228Z,3.47
2023-05-10T02:52:00.994Z,5.63
2023-05-10T02:54:32.848Z,3.28
2023-05-10T02:57:03.941Z,3.10
2023-05-10T02:59:30.549Z,3.20
2023-05-10T03:01:57.274Z,3.95
2023-05-10T03:04:23.827Z,1.33
2023-05-10T03:06:51.236Z,2.28
2023-05-10T03:09:17.876Z,4.72
2023-05-10T03:12:14.783Z,1.52
2023-05-10T03:15:01.666Z,1.95
2023-05-10T03:17:41.059Z,2.90
2023-05-10T03:20:11.344Z,3.58
2023-05-10T03:22:44.347Z,2.50
2023-05-10T03:25:12.571Z,3.50
2023-05-10T03:27:42.763Z,4.72
2023-05-10T03:30:12.783Z,3.38
2023-05-10T03:32:40.153Z,2.20
2023-05-10T03:35:11.280Z,3.50
2023-05-10T03:37:38.014Z,4.40
2023-05-10T03:40:05.444Z,1.95
2023-05-10T03:42:32.150Z,2.92
2023-05-10T03:44:58.735Z,6.22
2023-05-10T03:47:25.293Z,3.22
2023-05-10T03:49:51.857Z,2.65
2023-05-10T03:52:19.169Z,3.35
2023-05-10T03:54:45.697Z,4.53
2023-05-10T03:57:12.244Z,6.25
2023-05-10T03:59:38.841Z,5.38
2023-05-10T04:02:05.461Z,3.97
2023-05-10T04:04:31.972Z,4.63
2023-05-10T04:06:58.722Z,3.38
2023-05-10T04:09:25.294Z,3.13
2023-05-10T04:11:52.172Z,3.35
2023-05-10T04:14:18.800Z,2.17
2023-05-10T04:16:45.902Z,1.90
2023-05-10T04:19:12.652Z,3.22
2023-05-10T04:21:39.223Z,3.28
2023-05-10T04:24:06.062Z,4.32
2023-05-10T04:26:32.593Z,2.92
2023-05-10T04:28:59.116Z,2.42
2023-05-10T04:31:25.833Z,2.88
2023-05-10T04:33:52.489Z,4.32
2023-05-10T04:36:19.262Z,4.05
2023-05-10T04:38:45.824Z,2.80
2023-05-10T04:41:12.512Z,2.85
2023-05-10T04:43:39.497Z,5.45
2023-05-10T04:46:07.135Z,2.28
2023-05-10T04:48:33.855Z,4.13
2023-05-10T04:51:00.694Z,4.22
2023-05-10T04:53:27.363Z,1.98
2023-05-10T04:55:53.942Z,2.75
2023-05-10T04:58:20.466Z,1.90
2023-05-10T05:00:47.010Z,6.15
2023-05-10T05:03:13.703Z,2.85
2023-05-10T05:05:40.302Z,3.97
2023-05-10T05:08:07.115Z,2.28
2023-05-10T05:10:33.692Z,2.72
2023-05-10T05:13:00.417Z,1.85
2023-05-10T05:15:27.081Z,1.73
2023-05-10T05:17:53.691Z,2.17
2023-05-10T05:20:20.419Z,2.15
2023-05-10T05:22:46.948Z,2.83
2023-05-10T05:25:13.709Z,2.83
2023-05-10T05:27:40.384Z,4.30
2023-05-10T05:30:08.644Z,5.57
2023-05-10T05:32:35.426Z,2.85
2023-05-10T05:35:02.022Z,5.90
2023-05-10T05:37:28.566Z,2.17
2023-05-10T05:39:56.042Z,2.08
2023-05-10T05:42:22.701Z,4.15
2023-05-10T05:44:49.299Z,3.17
2023-05-10T05:47:15.940Z,2.13
2023-05-10T05:49:42.584Z,1.63
2023-05-10T05:52:09.251Z,2.70
2023-05-10T05:54:35.989Z,2.08
2023-05-10T05:57:02.536Z,1.77
2023-05-10T05:59:29.455Z,3.60
2023-05-10T06:01:56.056Z,7.40
2023-05-10T06:04:22.822Z,1.80
2023-05-10T06:06:49.620Z,9.02
2023-05-10T06:09:16.882Z,3.15
2023-05-10T06:11:43.946Z,1.88
2023-05-10T06:14:10.749Z,5.97
2023-05-10T06:16:37.399Z,3.30
2023-05-10T06:19:04.284Z,4.15
2023-05-10T06:21:31.282Z,5.30
2023-05-10T06:23:57.990Z,4.03
2023-05-10T06:26:24.554Z,2.72
2023-05-10T06:28:51.104Z,8.55
2023-05-10T06:31:17.834Z,5.18
2023-05-10T06:33:44.429Z,3.30
2023-05-10T06:36:10.965Z,3.28
2023-05-10T06:38:37.843Z,2.00
2023-05-10T06:41:04.396Z,3.25
2023-05-10T06:43:31.154Z,3.85
2023-05-10T06:45:57.788Z,4.95
2023-05-10T06:48:24.665Z,6.93
2023-05-10T06:50:51.208Z,7.78
2023-05-10T06:53:27.311Z,4.67
2023-05-10T06:55:53.865Z,6.43
2023-05-10T06:58:20.367Z,4.07
2023-05-10T07:00:48.016Z,5.85
2023-05-10T07:03:14.723Z,3.38
2023-05-10T07:05:41.329Z,5.93
2023-05-10T07:08:08.526Z,7.60
2023-05-10T07:10:35.086Z,8.68
2023-05-10T07:13:02.464Z,5.82
2023-05-10T07:15:29.519Z,5.70
2023-05-10T07:17:56.677Z,10.68
2023-05-10T07:20:23.319Z,7.15
2023-05-10T07:22:49.998Z,4.43
2023-05-10T07:25:16.921Z,10.40
2023-05-10T07:27:43.593Z,8.05
2023-05-10T07:30:10.565Z,6.03
2023-05-10T07:32:37.509Z,11.27
2023-05-10T07:35:04.432Z,9.95
2023-05-10T07:37:31.088Z,5.15
2023-05-10T07:39:57.641Z,10.95
2023-05-10T07:42:24.580Z,7.40
2023-05-10T07:44:51.169Z,7.80
2023-05-10T07:47:17.703Z,10.77
2023-05-10T07:49:44.558Z,8.35
2023-05-10T07:52:11.183Z,8.63
2023-05-10T07:54:38.479Z,7.43
2023-05-10T07:57:04.978Z,5.32
2023-05-10T07:59:31.553Z,8.77
2023-05-10T08:01:58.072Z,8.95
2023-05-10T08:04:25.100Z,9.45
2023-05-10T08:06:51.699Z,9.07
2023-05-10T08:09:18.828Z,8.82
2023-05-10T08:11:45.443Z,7.70
2023-05-10T08:14:12.104Z,3.53
2023-05-10T08:16:38.620Z,8.40
2023-05-10T08:19:05.922Z,11.32
2023-05-10T08:21:32.914Z,6.18
2023-05-10T08:23:59.447Z,4.97
2023-05-10T08:26:26.941Z,8.20
2023-05-10T08:28:53.527Z,5.95
2023-05-10T08:31:20.298Z,7.05
2023-05-10T08:33:46.971Z,4.47
2023-05-10T08:36:15.241Z,11.23
2023-05-10T08:38:41.836Z,8.93
2023-05-10T08:41:08.651Z,9.52
2023-05-10T08:43:37.300Z,5.25
2023-05-10T08:46:06.261Z,6.70
2023-05-10T08:48:35.387Z,6.80
2023-05-10T08:51:03.797Z,9.07
2023-05-10T08:53:34.052Z,8.02
2023-05-10T08:56:02.291Z,6.03
2023-05-10T08:58:29.290Z,8.18
2023-05-10T09:00:56.970Z,8.07
2023-05-10T09:03:23.666Z,7.97
2023-05-10T09:05:50.536Z,4.93
2023-05-10T09:08:19.873Z,8.52
2023-05-10T09:10:48.593Z,9.15
2023-05-10T09:13:16.560Z,7.60
2023-05-10T09:15:45.643Z,5.00
2023-05-10T09:18:12.748Z,7.45
2023-05-10T09:20:39.404Z,6.40
2023-05-10T09:23:06.769Z,5.43
2023-05-10T09:25:36.613Z,4.82
2023-05-10T09:28:03.395Z,2.17
2023-05-10T09:30:31.714Z,6.78
2023-05-10T09:32:59.980Z,7.38
2023-05-10T09:35:29.873Z,4.78
2023-05-10T09:37:59.042Z,8.57
2023-05-10T09:40:27.078Z,3.90
2023-05-10T09:43:07.893Z,9.35
2023-05-10T09:45:38.284Z,3.85
2023-05-10T09:48:06.105Z,6.67
2023-05-10T09:50:32.820Z,6.75
2023-05-10T09:53:01.330Z,4.45
2023-05-10T09:55:50.258Z,4.40
2023-05-10T09:58:17.132Z,4.05
2023-05-10T10:00:45.759Z,2.80
2023-05-10T10:03:20.032Z,6.38
2023-05-10T10:05:48.865Z,6.45
2023-05-10T10:08:17.574Z,4.70
2023-05-10T10:10:47.596Z,8.45
2023-05-10T10:13:15.039Z,9.18
2023-05-10T10:15:44.213Z,2.75
2023-05-10T10:18:14.657Z,8.30
2023-05-10T10:20:41.748Z,1.52
2023-05-10T10:23:09.365Z,5.20
2023-05-10T10:25:36.621Z,3.85
2023-05-10T10:28:27.542Z,11.25
2023-05-10T10:30:57.481Z,2.25
2023-05-10T10:33:48.798Z,2.00
2023-05-10T10:36:16.557Z,3.78
2023-05-10T10:38:49.083Z,3.63
2023-05-10T10:41:36.120Z,2.15
2023-05-10T10:44:39.337Z,9.18
2023-05-10T10:47:26.170Z,4.15
2023-05-10T10:50:04.698Z,4.60
2023-05-10T10:52:44.445Z,3.85
2023-05-10T10:55:19.944Z,3.97
2023-05-10T10:58:01.659Z,5.18
2023-05-10T11:00:37.889Z,3.95
2023-05-10T11:03:15.747Z,4.13
2023-05-10T11:05:46.556Z,2.08
2023-05-10T11:08:30.754Z,2.00
2023-05-10T11:11:00.335Z,3.08
2023-05-10T11:13:34.212Z,3.08
2023-05-10T11:16:12.589Z,5.20
2023-05-10T11:18:39.278Z,3.47
2023-05-10T11:21:10.381Z,3.40
2023-05-10T11:23:48.933Z,2.05
2023-05-10T11:26:15.878Z,3.67
2023-05-10T11:28:45.086Z,4.00
2023-05-10T11:31:13.566Z,2.53
2023-05-10T11:33:51.702Z,1.60
2023-05-10T11:36:26.917Z,4.68
2023-05-10T11:38:53.953Z,3.90
2023-05-10T11:41:24.536Z,2.15
2023-05-10T11:43:52.631Z,3.55
2023-05-10T11:46:22.437Z,2.67
2023-05-10T11:48:54.038Z,1.73
2023-05-10T11:51:22.768Z,4.28
2023-05-10T11:53:54.442Z,1.80
2023-05-10T11:56:22.756Z,2.67
2023-05-10T11:58:57.061Z,2.55
2023-05-10T12:01:25.438Z,2.13
2023-05-10T12:03:53.573Z,2.72
2023-05-10T12:06:21.416Z,5.15
2023-05-10T12:08:53.634Z,5.00
2023-05-10T12:11:22.867Z,4.47
2023-05-10T12:13:50.834Z,1.67
2023-05-10T12:16:22.762Z,4.68
2023-05-10T12:18:52.073Z,4.13
2023-05-10T12:21:20.824Z,5.65
2023-05-10T12:23:49.810Z,3.20
2023-05-10T12:26:16.505Z,2.25
2023-05-10T12:28:43.111Z,2.95
2023-05-10T12:31:10.104Z,5.20
2023-05-10T12:33:42.461Z,2.67
2023-05-10T12:36:10.756Z,3.72
2023-05-10T12:38:45.402Z,5.10
2023-05-10T12:41:14.063Z,3.17
2023-05-10T12:43:41.238Z,1.95
2023-05-10T12:46:08.080Z,3.35
2023-05-10T12:48:35.629Z,2.05
2023-05-10T12:51:03.136Z,2.25
2023-05-10T12:53:29.645Z,2.05
2023-05-10T12:55:56.318Z,7.13
2023-05-10T12:58:34.964Z,4.20
2023-05-10T13:01:02.547Z,2.55
2023-05-10T13:03:29.120Z,3.53
2023-05-10T13:05:55.814Z,2.25
2023-05-10T13:08:22.377Z,3.10
2023-05-10T13:10:49.317Z,5.63
2023-05-10T13:13:16.585Z,3.20
2023-05-10T13:15:43.077Z,1.98
2023-05-10T13:18:09.664Z,6.20
2023-05-10T13:20:36.243Z,3.20
2023-05-10T13:23:03.606Z,1.83
2023-05-10T13:25:30.357Z,1.33
2023-05-10T13:27:56.829Z,3.63
2023-05-10T13:30:24.763Z,2.42
2023-05-10T13:32:51.537Z,2.85
2023-05-10T13:35:18.254Z,2.38
2023-05-10T13:37:44.923Z,4.82
2023-05-10T13:40:11.667Z,4.20
2023-05-10T13:42:38.479Z,2.17
2023-05-10T13:45:05.611Z,3.25
2023-05-10T13:47:32.267Z,3.50
2023-05-10T13:49:59.337Z,2.60
2023-05-10T13:52:26.138Z,1.27
2023-05-10T13:54:53.286Z,9.25
2023-05-10T13:57:19.745Z,3.72
2023-05-10T13:59:46.308Z,1.05
2023-05-10T14:02:14.179Z,2.72
2023-05-10T14:04:40.758Z,3.55
2023-05-10T14:07:07.275Z,2.83
2023-05-10T14:09:33.842Z,1.00
2023-05-10T14:12:00.403Z,1.45
2023-05-10T14:14:26.999Z,0.73
2023-05-10T14:16:53.464Z,4.95
2023-05-10T14:19:20.070Z,0.43
2023-05-10T14:21:46.635Z,1.50
2023-05-10T14:24:13.155Z,0.63
2023-05-10T14:26:39.730Z,1.38
2023-05-10T14:29:06.184Z,3.35
2023-05-10T14:31:32.898Z,3.47
2023-05-10T14:34:00.179Z,1.85
2023-05-10T14:36:26.842Z,2.75
2023-05-10T14:38:53.414Z,1.27
2023-05-10T14:41:19.900Z,0.85
2023-05-10T14:43:46.878Z,1.27
2023-05-10T14:46:13.554Z,1.45
2023-05-10T14:48:40.224Z,7.13
2023-05-10T14:51:07.460Z,2.13
2023-05-10T14:53:34.089Z,1.17
2023-05-10T14:56:02.231Z,2.75
2023-05-10T14:58:28.927Z,0.98
2023-05-10T15:00:55.453Z,2.75
2023-05-10T15:03:22.376Z,1.42
2023-05-10T15:05:49.339Z,1.35
2023-05-10T15:10:42.572Z,1.30
2023-05-10T15:13:09.059Z,3.58
2023-05-10T15:15:35.599Z,1.30
2023-05-10T15:18:02.176Z,3.90
2023-05-10T15:20:28.884Z,2.28
2023-05-10T15:22:55.414Z,3.10
2023-05-10T15:25:22.181Z,6.00
2023-05-10T15:27:48.724Z,0.93
2023-05-10T15:30:15.417Z,3.03
2023-05-10T15:32:41.953Z,1.63
2023-05-10T15:35:10.553Z,1.27
2023-05-10T15:37:37.820Z,0.88
2023-05-10T15:40:05.134Z,1.20
2023-05-10T15:44:59.647Z,1.23
2023-05-10T15:47:27.016Z,5.88
2023-05-10T15:49:53.604Z,1.80
2023-05-10T15:52:21.647Z,1.25
2023-05-10T15:54:48.261Z,3.40
2023-05-10T15:57:14.870Z,2.15
2023-05-10T15:59:41.697Z,1.92
2023-05-10T16:02:10.854Z,0.90
2023-05-10T16:04:37.840Z,2.40
2023-05-10T16:07:04.565Z,1.98
2023-05-10T16:09:31.082Z,0.90
2023-05-10T16:11:57.594Z,0.77
2023-05-10T16:14:24.752Z,1.45
2023-05-10T16:16:51.735Z,2.80
2023-05-10T16:19:18.500Z,0.88
2023-05-10T16:21:45.292Z,1.20
2023-05-10T16:24:11.855Z,1.00
2023-05-10T16:26:40.968Z,1.27
2023-05-10T16:29:10.919Z,1.08
2023-05-10T16:31:37.529Z,2.22
2023-05-10T16:34:04.221Z,2.17
2023-05-10T16:36:31.537Z,1.75
2023-05-10T16:38:58.432Z,1.85
2023-05-10T16:41:25.894Z,1.75
2023-05-10T16:43:52.567Z,1.50
2023-05-10T16:46:19.134Z,1.35
2023-05-10T16:48:46.010Z,3.85
2023-05-10T16:51:12.590Z,1.05
2023-05-10T16:53:39.231Z,3.15
2023-05-10T16:56:05.956Z,4.43
2023-05-10T16:58:32.457Z,1.25
2023-05-10T17:00:58.984Z,3.15
2023-05-10T17:03:26.021Z,1.52
2023-05-10T17:05:52.656Z,2.15
2023-05-10T17:08:19.271Z,1.75
2023-05-10T17:10:46.134Z,3.80
2023-05-10T17:13:12.694Z,0.93
2023-05-10T17:15:39.689Z,2.35
2023-05-10T17:18:07.533Z,2.22
2023-05-10T17:20:34.487Z,0.80
2023-05-10T17:23:02.699Z,1.15
2023-05-10T17:25:29.620Z,0.73
2023-05-10T17:27:56.155Z,3.20
2023-05-10T17:30:26.375Z,3.10
2023-05-10T17:32:54.369Z,0.93
2023-05-10T17:35:21.566Z,1.75
2023-05-10T17:37:48.217Z,1.85
2023-05-10T17:40:15.042Z,1.95
2023-05-10T17:42:41.965Z,0.93
2023-05-10T17:45:09.154Z,3.78
2023-05-10T17:47:35.789Z,2.85
2023-05-10T17:50:02.403Z,1.88
2023-05-10T17:52:31.367Z,1.27
2023-05-10T17:54:59.843Z,3.97
2023-05-10T17:57:26.442Z,2.25
2023-05-10T17:59:53.013Z,2.33
2023-05-10T18:02:19.616Z,3.40
2023-05-10T18:04:46.423Z,1.85
2023-05-10T18:07:13.083Z,3.60
2023-05-10T18:09:39.585Z,0.75
2023-05-10T18:12:06.737Z,1.38
2023-05-10T18:14:40.530Z,1.75
2023-05-10T18:17:09.127Z,1.75
2023-05-10T18:19:35.817Z,1.83
2023-05-10T18:22:02.771Z,1.65
2023-05-10T18:24:37.515Z,3.10
2023-05-10T18:27:05.887Z,1.92
2023-05-10T18:29:32.823Z,1.13
2023-05-10T18:31:59.390Z,2.78
2023-05-10T18:34:25.969Z,3.35
2023-05-10T18:36:52.792Z,0.93
2023-05-10T18:39:19.488Z,4.90
2023-05-10T18:41:46.101Z,5.28
2023-05-10T18:44:12.646Z,2.35
2023-05-10T18:46:39.511Z,2.03
2023-05-10T18:49:08.363Z,4.50
2023-05-10T18:51:35.057Z,3.42
2023-05-10T18:54:01.579Z,2.45
2023-05-10T18:56:28.254Z,1.75
2023-05-10T18:58:54.921Z,1.40
2023-05-10T19:01:21.657Z,4.15
2023-05-10T19:03:48.292Z,0.60
2023-05-10T19:06:14.877Z,1.42
2023-05-10T19:08:41.401Z,3.22
2023-05-10T19:11:07.975Z,1.27
2023-05-10T19:13:34.567Z,5.05
2023-05-10T19:16:10.581Z,1.63
2023-05-10T19:18:38.462Z,3.20
2023-05-10T19:21:09.653Z,1.25
2023-05-10T19:23:40.400Z,3.73
2023-05-10T19:26:09.332Z,1.27
2023-05-10T19:28:36.603Z,2.30
2023-05-10T19:31:03.503Z,1.80
2023-05-10T19:33:30.174Z,2.78
2023-05-10T19:35:56.720Z,3.03
2023-05-10T19:38:24.359Z,3.90
2023-05-10T19:40:57.504Z,4.18
2023-05-10T19:43:29.171Z,4.97
2023-05-10T19:48:26.538Z,1.08
2023-05-10T19:50:53.783Z,4.32
2023-05-10T19:53:20.324Z,1.92
2023-05-10T19:55:46.990Z,1.75
2023-05-10T19:58:13.501Z,2.08
2023-05-10T20:00:40.065Z,4.35
2023-05-10T20:03:09.165Z,2.35
2023-05-10T20:05:36.126Z,1.58
2023-05-10T20:08:02.719Z,2.90
2023-05-10T20:10:29.381Z,3.13
2023-05-10T20:12:55.978Z,1.27
2023-05-10T20:15:23.474Z,5.00
2023-05-10T20:17:52.206Z,1.85
2023-05-10T20:20:20.159Z,2.72
2023-05-10T20:22:47.959Z,3.13
2023-05-10T20:25:15.236Z,1.60
2023-05-10T20:27:41.931Z,1.63
2023-05-10T20:30:10.452Z,3.25
2023-05-10T20:32:38.042Z,3.25
2023-05-10T20:35:05.698Z,2.03
2023-05-10T20:37:32.500Z,2.60
2023-05-10T20:39:59.018Z,1.38
2023-05-10T20:42:25.613Z,3.65
2023-05-10T20:44:52.237Z,1.70
2023-05-10T20:47:19.005Z,6.63
2023-05-10T20:49:45.898Z,2.15
2023-05-10T20:52:12.572Z,2.20
2023-05-10T20:54:39.112Z,3.72
2023-05-10T20:57:05.776Z,2.67
2023-05-10T20:59:32.396Z,1.65
2023-05-10T21:01:59.269Z,1.30
2023-05-10T21:04:26.036Z,4.03
2023-05-10T21:06:53.321Z,2.28
2023-05-10T21:09:19.989Z,3.20
2023-05-10T21:11:46.633Z,1.92
2023-05-10T21:14:13.261Z,6.70
2023-05-10T21:16:39.987Z,2.88
2023-05-10T21:19:07.619Z,1.98
2023-05-10T21:21:34.463Z,6.50
2023-05-10T21:24:01.213Z,3.47
2023-05-10T21:26:27.807Z,2.67
2023-05-10T21:28:54.449Z,1.95
2023-05-10T21:31:21.434Z,3.63
2023-05-10T21:33:48.057Z,3.33
2023-05-10T21:36:15.012Z,2.95
2023-05-10T21:38:44.246Z,2.03
2023-05-10T21:41:11.090Z,3.45
2023-05-10T21:43:37.721Z,2.53
2023-05-10T21:46:04.784Z,2.92
2023-05-10T21:48:31.454Z,4.00
2023-05-10T21:50:58.758Z,2.60
2023-05-10T21:53:25.368Z,2.30
2023-05-10T21:55:51.912Z,4.57
2023-05-10T21:58:18.613Z,4.95
2023-05-10T22:00:45.140Z,3.78
2023-05-10T22:03:11.829Z,2.47
2023-05-10T22:05:39.010Z,1.85
2023-05-10T22:08:06.572Z,3.42
2023-05-10T22:10:33.401Z,4.78
2023-05-10T22:13:00.321Z,3.65
2023-05-10T22:15:27.435Z,2.33
2023-05-10T22:17:54.022Z,6.35
2023-05-10T22:20:21.179Z,5.43
2023-05-10T22:22:47.951Z,3.75
2023-05-10T22:25:14.751Z,3.67
2023-05-10T22:27:41.455Z,3.65
2023-05-10T22:30:08.717Z,3.60
2023-05-10T22:32:35.241Z,9.18
2023-05-10T22:35:02.420Z,5.63
2023-05-10T22:37:28.971Z,4.35
2023-05-10T22:39:55.525Z,4.53
2023-05-10T22:42:22.131Z,3.40
2023-05-10T22:44:48.647Z,7.03
2023-05-10T22:47:16.382Z,4.47
2023-05-10T22:49:42.930Z,3.58
2023-05-10T22:52:09.783Z,4.45
2023-05-10T22:54:36.553Z,6.22
2023-05-10T22:57:03.342Z,5.47
2023-05-10T22:59:29.982Z,4.00
2023-05-10T23:01:56.578Z,4.13
2023-05-10T23:04:23.198Z,4.75
2023-05-10T23:06:49.825Z,5.03
2023-05-10T23:09:16.497Z,5.55
2023-05-10T23:11:43.253Z,3.80
2023-05-10T23:14:09.731Z,4.53
2023-05-10T23:16:36.700Z,3.42
2023-05-10T23:19:03.386Z,4.75
2023-05-10T23:21:31.972Z,5.85
2023-05-10T23:23:58.985Z,3.35
2023-05-10T23:26:25.634Z,6.88
2023-05-10T23:28:52.372Z,6.05
2023-05-10T23:31:19.012Z,5.15
2023-05-10T23:33:45.664Z,5.65
2023-05-10T23:36:12.472Z,4.85
2023-05-10T23:38:39.452Z,5.68
2023-05-10T23:41:06.219Z,5.55
2023-05-10T23:43:32.788Z,7.10
2023-05-10T23:45:59.556Z,7.00
2023-05-10T23:48:26.283Z,9.00
2023-05-10T23:50:53.349Z,8.13
2023-05-10T23:53:19.997Z,4.22
2023-05-10T23:55:46.828Z,4.63
2023-05-10T23:58:13.483Z,7.35
